Savage, Minnesota
Current Conditions -  °F | °C
As of 10:53 PM on Saturday 20 Dec 2014 (Local Time) from KFCM Reporting Station
Overcast Overcast  
Wind Chill: 24°   Ceiling: 1400
Heat Index: 32°   Visibility: 8mi
Dew Point: 26°   Wind: 9mph
Humidity: 79%   Direction: 160°SSE
Pressure: 30.06"   Gusts: NA
Location:  44.76°N, 93.35°W
Report Text: KFCM 210453Z AUTO 16008KT 8SM OVC014 00/M03 A3006 RMK AO2 SLP190 T00001033
Loading
Personal Weather Stations






























Interactive Weather Map New forecast layout! Learn more

10-Day Weather Forecast

Advertisements
Track Severe Weather on mobile